Time;durP1;ratioP1;P1;durP2;ratioP2;P2;SDS_P1;SDS_P2;PMS_P1;PMS_P2;Temp;Humidity;BMP_temperature;BMP_pressure;BME280_temperature;BME280_humidity;BME280_pressure;Samples;Min_cycle;Max_cycle;Signal;HPM_P1;HPM_P2
2021/04/19 00:00:32;;;;;;;8.75;4.07;;;12.90;50.10;;;;;;6216109;28;20038;-78
2021/04/19 00:03:34;;;;;;;6.60;3.60;;;12.90;49.90;;;;;;6207331;28;20058;-78
2021/04/19 00:06:35;;;;;;;9.30;4.45;;;12.90;50.00;;;;;;6209036;28;20038;-79
2021/04/19 00:09:37;;;;;;;8.70;4.32;;;12.90;49.90;;;;;;6195509;28;20030;-79
2021/04/19 00:12:37;;;;;;;8.93;4.18;;;12.80;50.30;;;;;;6198032;28;20053;-78
2021/04/19 00:15:39;;;;;;;10.98;4.90;;;12.80;50.90;;;;;;6213325;28;20034;-79
2021/04/19 00:18:39;;;;;;;8.77;4.57;;;12.80;51.40;;;;;;6219917;28;20041;-79
2021/04/19 00:21:40;;;;;;;9.85;4.13;;;12.80;51.70;;;;;;6206519;28;20077;-79
2021/04/19 00:24:41;;;;;;;6.47;4.05;;;12.80;51.90;;;;;;6206922;28;20038;-79
2021/04/19 00:27:43;;;;;;;7.07;4.40;;;12.80;52.00;;;;;;6218889;28;20030;-79
2021/04/19 00:30:44;;;;;;;10.48;4.38;;;12.70;52.10;;;;;;6193279;28;20042;-79
2021/04/19 00:33:45;;;;;;;13.13;4.35;;;12.70;52.20;;;;;;6196988;28;20042;-79
2021/04/19 00:36:45;;;;;;;6.95;3.92;;;12.70;52.20;;;;;;6199481;28;20099;-79
2021/04/19 00:39:46;;;;;;;8.57;4.60;;;12.60;52.10;;;;;;6215304;28;20065;-78
2021/04/19 00:42:50;;;;;;;10.18;4.43;;;12.60;52.10;;;;;;6219723;28;20077;-79
2021/04/19 00:45:52;;;;;;;9.07;4.07;;;12.60;52.10;;;;;;6219519;28;20053;-78
2021/04/19 00:48:53;;;;;;;8.73;4.40;;;12.50;51.90;;;;;;6217841;28;20049;-78
2021/04/19 00:51:55;;;;;;;5.78;3.88;;;12.50;51.60;;;;;;6208237;28;20099;-79
2021/04/19 00:54:59;;;;;;;6.82;3.72;;;12.40;51.40;;;;;;6193292;28;20043;-79
2021/04/19 00:58:00;;;;;;;8.32;4.07;;;12.30;51.40;;;;;;6211030;28;20093;-78
2021/04/19 01:01:04;;;;;;;9.85;3.85;;;12.30;51.30;;;;;;6174372;28;20046;-79
2021/04/19 01:04:05;;;;;;;7.18;3.92;;;12.20;51.20;;;;;;6199453;28;20045;-78
2021/04/19 01:07:08;;;;;;;10.07;4.07;;;12.20;51.20;;;;;;6207768;28;20038;-78
2021/04/19 01:10:10;;;;;;;12.70;4.00;;;12.10;51.30;;;;;;6219923;28;20469;-78
2021/04/19 01:13:12;;;;;;;8.68;4.13;;;12.10;51.40;;;;;;6215888;28;20035;-77
2021/04/19 01:16:14;;;;;;;12.77;4.38;;;12.00;51.40;;;;;;6213511;28;20368;-76
2021/04/19 01:19:15;;;;;;;9.23;4.05;;;11.90;51.40;;;;;;6214616;28;20026;-78
2021/04/19 01:22:18;;;;;;;12.38;3.88;;;11.90;51.60;;;;;;6198509;28;20046;-79
2021/04/19 01:25:23;;;;;;;6.93;3.65;;;11.80;51.60;;;;;;6206689;28;20461;-78
2021/04/19 01:28:24;;;;;;;7.40;3.72;;;11.80;51.70;;;;;;6214194;28;20353;-78
2021/04/19 01:31:26;;;;;;;7.57;3.55;;;11.70;51.90;;;;;;6205594;28;20381;-78
2021/04/19 01:34:33;;;;;;;9.25;4.03;;;11.70;51.80;;;;;;6220606;28;20048;-77
2021/04/19 01:37:34;;;;;;;6.70;3.97;;;11.70;51.80;;;;;;6199249;28;20105;-77
2021/04/19 01:40:36;;;;;;;9.45;4.15;;;11.70;52.00;;;;;;6221699;28;20074;-78
2021/04/19 01:43:37;;;;;;;7.57;3.58;;;11.60;51.90;;;;;;6218726;28;20460;-78
2021/04/19 01:46:41;;;;;;;13.00;4.00;;;11.60;51.90;;;;;;6208731;28;20456;-78
2021/04/19 01:49:42;;;;;;;13.52;4.05;;;11.60;51.90;;;;;;6220567;28;20089;-78
2021/04/19 01:52:43;;;;;;;9.15;4.18;;;11.50;51.90;;;;;;6201395;28;20034;-77
2021/04/19 01:55:45;;;;;;;8.73;4.43;;;11.40;52.00;;;;;;6202678;28;20034;-77
2021/04/19 01:58:47;;;;;;;8.27;4.55;;;11.30;52.30;;;;;;6200290;28;20132;-78
2021/04/19 02:02:12;;;;;;;10.32;3.92;;;11.20;52.40;;;;;;6226373;28;20487;-77
2021/04/19 02:05:32;;;;;;;7.47;4.25;;;11.20;52.70;;;;;;6225388;28;20364;-77
2021/04/19 02:09:10;;;;;;;10.80;4.35;;;11.10;52.80;;;;;;6228602;28;20076;-78
2021/04/19 02:12:21;;;;;;;8.40;4.05;;;11.10;53.00;;;;;;6216220;28;20091;-78
2021/04/19 02:15:42;;;;;;;5.60;3.58;;;11.00;53.00;;;;;;6237388;28;20033;-78
2021/04/19 02:19:01;;;;;;;8.48;4.05;;;11.00;53.10;;;;;;6226443;28;20044;-78
2021/04/19 02:22:16;;;;;;;11.60;4.47;;;11.00;53.00;;;;;;6208371;28;20372;-78
2021/04/19 02:25:26;;;;;;;12.77;4.45;;;11.00;53.00;;;;;;6193182;28;20049;-78
2021/04/19 02:28:33;;;;;;;7.40;4.28;;;11.00;52.90;;;;;;6209970;28;20046;-77
2021/04/19 02:31:44;;;;;;;8.60;3.65;;;11.00;53.00;;;;;;6209111;28;20041;-77
2021/04/19 02:34:50;;;;;;;8.77;4.45;;;11.00;53.00;;;;;;6224422;28;20132;-77
2021/04/19 02:37:56;;;;;;;10.38;4.63;;;11.00;53.00;;;;;;6218725;28;20060;-78
2021/04/19 02:41:02;;;;;;;;;;;11.00;53.20;;;;;;6224414;28;20041;-77
2021/04/19 02:44:07;;;;;;;8.38;4.00;;;11.00;53.10;;;;;;6238021;28;19920;-77
2021/04/19 02:47:29;;;;;;;11.15;4.32;;;11.00;53.00;;;;;;6222111;28;20033;-79
2021/04/19 02:51:00;;;;;;;7.25;4.05;;;11.00;53.00;;;;;;6210774;28;20116;-78
2021/04/19 02:54:02;;;;;;;7.93;4.13;;;10.90;53.00;;;;;;6194506;28;20461;-78
2021/04/19 02:57:08;;;;;;;10.25;4.03;;;10.90;53.20;;;;;;6203611;28;20038;-77
2021/04/19 03:00:09;;;;;;;9.35;4.38;;;10.90;53.30;;;;;;6209165;28;20104;-77
2021/04/19 03:03:18;;;;;;;6.40;3.53;;;10.90;53.30;;;;;;6213266;28;20030;-78
2021/04/19 03:06:22;;;;;;;9.60;4.00;;;10.90;53.30;;;;;;6192647;28;20096;-78
2021/04/19 03:09:26;;;;;;;11.32;4.95;;;10.90;53.40;;;;;;6190907;28;20060;-78
2021/04/19 03:12:30;;;;;;;7.03;3.97;;;10.80;53.40;;;;;;6213132;28;20037;-77
2021/04/19 03:15:37;;;;;;;7.82;4.25;;;10.70;53.50;;;;;;6200230;28;20072;-78
2021/04/19 03:18:47;;;;;;;7.95;4.05;;;10.70;53.60;;;;;;6206940;28;20038;-78
2021/04/19 03:21:50;;;;;;;6.47;3.60;;;10.70;53.80;;;;;;6232357;28;20363;-78
2021/04/19 03:24:55;;;;;;;13.35;4.65;;;10.70;54.10;;;;;;6214236;28;20040;-78
2021/04/19 03:28:03;;;;;;;10.93;4.32;;;10.60;54.30;;;;;;6217963;28;20033;-78
2021/04/19 03:31:09;;;;;;;8.85;3.88;;;10.60;54.50;;;;;;6215673;28;20034;-78
2021/04/19 03:34:31;;;;;;;8.13;4.05;;;10.60;54.40;;;;;;6186988;28;20069;-78
2021/04/19 03:37:37;;;;;;;9.40;4.38;;;10.50;54.40;;;;;;6191023;28;20043;-78
2021/04/19 03:40:40;;;;;;;6.53;3.63;;;10.50;54.30;;;;;;6213627;28;20041;-78
2021/04/19 03:43:53;;;;;;;9.90;4.50;;;10.50;54.40;;;;;;6225935;28;20350;-78
2021/04/19 03:46:57;;;;;;;9.27;4.45;;;10.40;54.40;;;;;;6218219;28;20562;-78
2021/04/19 03:50:12;;;;;;;10.32;4.22;;;10.40;54.40;;;;;;6198608;28;20076;-78
2021/04/19 03:53:26;;;;;;;7.43;3.90;;;10.40;54.40;;;;;;6202043;28;20100;-77
2021/04/19 03:56:30;;;;;;;8.75;4.22;;;10.40;54.50;;;;;;6229269;28;20476;-78
2021/04/19 03:59:36;;;;;;;6.55;4.22;;;10.40;54.50;;;;;;6218710;28;20452;-78
2021/04/19 04:02:47;;;;;;;7.47;4.20;;;10.40;54.50;;;;;;6223168;28;20653;-78
2021/04/19 04:05:52;;;;;;;;;;;10.30;54.40;;;;;;6207232;28;20069;-77
2021/04/19 04:08:58;;;;;;;10.13;4.13;;;10.40;54.40;;;;;;6211418;28;19924;-78
2021/04/19 04:12:00;;;;;;;8.40;4.32;;;10.40;54.30;;;;;;6216194;28;20038;-79
2021/04/19 04:15:08;;;;;;;9.30;3.90;;;10.40;54.40;;;;;;6202405;28;20084;-79
2021/04/19 04:18:13;;;;;;;7.63;4.00;;;10.30;54.20;;;;;;6216219;28;20033;-78
2021/04/19 04:21:19;;;;;;;7.45;3.95;;;10.40;54.40;;;;;;6195818;28;20476;-79
2021/04/19 04:24:24;;;;;;;9.77;4.22;;;10.40;54.50;;;;;;6199122;28;20472;-78
2021/04/19 04:27:27;;;;;;;8.40;4.13;;;10.30;54.50;;;;;;6216130;28;20475;-78
2021/04/19 04:30:29;;;;;;;9.63;4.88;;;10.30;54.50;;;;;;6218969;28;20065;-79
2021/04/19 04:33:47;;;;;;;8.75;4.28;;;10.40;54.80;;;;;;6215868;28;20050;-78
2021/04/19 04:36:54;;;;;;;10.48;4.70;;;10.40;55.00;;;;;;6214944;28;20030;-78
2021/04/19 04:39:55;;;;;;;10.55;4.60;;;10.40;55.20;;;;;;6220210;28;20030;-78
2021/04/19 04:43:23;;;;;;;8.13;4.97;;;10.40;55.70;;;;;;6208714;28;20042;-79
2021/04/19 04:46:45;;;;;;;7.18;4.07;;;10.40;55.80;;;;;;6212230;28;20456;-79
2021/04/19 04:50:04;;;;;;;7.93;4.32;;;10.40;56.00;;;;;;6202729;28;20111;-78
2021/04/19 04:53:25;;;;;;;7.45;4.35;;;10.30;56.10;;;;;;6202041;28;20069;-78
2021/04/19 04:56:32;;;;;;;9.15;4.60;;;10.30;56.20;;;;;;6216694;28;20369;-79
2021/04/19 04:59:33;;;;;;;8.35;4.72;;;10.30;56.30;;;;;;6224515;28;20357;-79
2021/04/19 05:02:35;;;;;;;8.63;4.45;;;10.30;56.40;;;;;;6201230;28;20112;-78
2021/04/19 05:05:36;;;;;;;6.97;4.20;;;10.30;56.40;;;;;;6218632;28;20057;-78
2021/04/19 05:08:41;;;;;;;11.38;4.45;;;10.30;56.20;;;;;;6206602;28;20040;-78
2021/04/19 05:11:43;;;;;;;10.25;5.20;;;10.30;56.00;;;;;;6233682;28;20372;-79
2021/04/19 05:14:57;;;;;;;7.75;4.25;;;10.30;55.90;;;;;;6202751;28;20029;-78
2021/04/19 05:17:58;;;;;;;8.57;4.20;;;10.30;55.80;;;;;;6220436;28;20041;-79
2021/04/19 05:20:59;;;;;;;8.82;4.35;;;10.40;55.70;;;;;;6207200;28;20065;-78
2021/04/19 05:24:00;;;;;;;8.70;4.95;;;10.40;55.70;;;;;;6204266;28;20105;-78
2021/04/19 05:27:01;;;;;;;18.02;5.28;;;10.40;55.70;;;;;;6216626;28;20064;-79
2021/04/19 05:30:03;;;;;;;11.05;4.68;;;10.40;55.80;;;;;;6210532;28;20055;-78
2021/04/19 05:33:05;;;;;;;9.60;5.15;;;10.40;55.90;;;;;;6213301;28;20073;-78
2021/04/19 05:36:30;;;;;;;10.60;5.80;;;10.50;56.40;;;;;;6205895;28;20030;-78
2021/04/19 05:39:32;;;;;;;13.18;4.93;;;10.50;56.20;;;;;;6170506;28;20070;-78
2021/04/19 05:42:35;;;;;;;13.07;5.25;;;10.50;56.30;;;;;;6184506;28;20058;-78
2021/04/19 05:45:37;;;;;;;11.95;4.65;;;10.50;57.00;;;;;;6186139;28;20039;-78
2021/04/19 05:48:39;;;;;;;7.95;4.28;;;10.50;56.60;;;;;;6186815;28;20054;-78
2021/04/19 05:51:42;;;;;;;7.93;4.60;;;10.50;56.70;;;;;;6176135;28;20039;-78
2021/04/19 05:54:44;;;;;;;8.65;4.90;;;10.50;56.80;;;;;;6171438;28;20068;-78
2021/04/19 05:57:53;;;;;;;19.42;5.15;;;10.50;56.90;;;;;;6156620;28;20118;-78
2021/04/19 06:01:05;;;;;;;14.52;5.15;;;10.50;56.90;;;;;;6185015;28;20038;-78
2021/04/19 06:04:26;;;;;;;7.68;4.80;;;10.50;56.80;;;;;;6157509;28;20034;-78
2021/04/19 06:07:33;;;;;;;11.05;5.57;;;10.60;56.80;;;;;;6163596;28;20093;-79
2021/04/19 06:11:03;;;;;;;19.55;6.18;;;10.60;56.70;;;;;;6196095;28;20034;-78
2021/04/19 06:14:34;;;;;;;11.23;4.95;;;10.60;56.70;;;;;;6194869;28;20030;-78
2021/04/19 06:17:38;;;;;;;9.18;5.43;;;10.60;56.60;;;;;;6175774;28;20150;-78
2021/04/19 06:20:39;;;;;;;10.55;6.45;;;10.70;56.60;;;;;;6182949;28;20543;-78
2021/04/19 06:23:42;;;;;;;15.48;6.15;;;10.80;56.60;;;;;;6185167;28;20377;-79
2021/04/19 06:26:43;;;;;;;15.07;6.22;;;10.80;56.50;;;;;;6180025;28;20438;-78
2021/04/19 06:29:43;;;;;;;14.35;6.40;;;10.90;56.40;;;;;;6183765;28;20034;-78
2021/04/19 06:32:48;;;;;;;11.30;6.10;;;11.00;56.30;;;;;;6181047;28;20371;-78
2021/04/19 06:35:49;;;;;;;11.00;5.28;;;11.10;56.20;;;;;;6169964;28;20132;-78
2021/04/19 06:38:50;;;;;;;12.77;6.07;;;11.10;56.10;;;;;;6175670;28;20375;-78
2021/04/19 06:41:51;;;;;;;16.13;6.50;;;11.10;56.00;;;;;;6172582;28;20108;-79
2021/04/19 06:44:52;;;;;;;15.13;6.97;;;11.20;55.90;;;;;;6167667;28;20374;-78
2021/04/19 06:47:53;;;;;;;19.85;7.25;;;11.30;55.90;;;;;;6198791;28;20046;-79
2021/04/19 06:50:58;;;;;;;11.65;6.20;;;11.30;55.80;;;;;;6178523;28;20031;-79
2021/04/19 06:54:01;;;;;;;12.05;6.97;;;11.30;55.70;;;;;;6159940;28;20034;-79
2021/04/19 06:57:09;;;;;;;12.40;6.55;;;11.40;55.60;;;;;;6197501;28;20034;-79
2021/04/19 07:00:11;;;;;;;17.58;7.57;;;11.50;55.50;;;;;;6196718;28;20045;-78
2021/04/19 07:03:13;;;;;;;11.60;6.60;;;11.50;55.30;;;;;;6193480;28;20048;-78
2021/04/19 07:06:14;;;;;;;15.63;7.68;;;11.60;55.30;;;;;;6207663;28;20531;-78
2021/04/19 07:09:26;;;;;;;10.60;6.80;;;11.70;55.20;;;;;;6202142;28;20042;-79
2021/04/19 07:12:28;;;;;;;13.95;7.35;;;11.80;55.00;;;;;;6169283;28;20456;-79
2021/04/19 07:15:29;;;;;;;10.88;6.47;;;12.00;54.80;;;;;;6199695;28;20042;-79
2021/04/19 07:18:30;;;;;;;17.65;7.65;;;12.10;54.60;;;;;;6197738;28;20054;-79
2021/04/19 07:21:37;;;;;;;14.43;8.07;;;12.20;54.50;;;;;;6184588;28;20045;-78
2021/04/19 07:24:39;;;;;;;12.40;7.80;;;12.20;54.40;;;;;;6207891;28;20034;-77
2021/04/19 07:27:41;;;;;;;13.13;6.75;;;12.30;54.30;;;;;;6205807;28;20046;-79
2021/04/19 07:30:43;;;;;;;17.67;7.88;;;12.30;54.10;;;;;;6197975;28;20042;-79
2021/04/19 07:33:44;;;;;;;17.23;6.60;;;12.40;54.00;;;;;;6152463;28;20043;-79
2021/04/19 07:36:53;;;;;;;22.33;7.75;;;12.40;53.70;;;;;;6169628;28;20042;-78
2021/04/19 07:39:55;;;;;;;;;;;12.50;53.50;;;;;;6207254;28;20472;-78
2021/04/19 07:43:21;;;;;;;14.50;6.40;;;12.60;53.20;;;;;;6203494;28;19918;-78
2021/04/19 07:46:22;;;;;;;16.98;6.93;;;12.70;52.90;;;;;;6195703;28;20034;-79
2021/04/19 07:49:23;;;;;;;13.38;7.40;;;12.70;52.70;;;;;;6182295;28;20457;-79
2021/04/19 07:52:29;;;;;;;11.13;5.93;;;12.90;52.60;;;;;;6188662;28;20049;-78
2021/04/19 07:55:47;;;;;;;11.80;6.18;;;13.10;52.30;;;;;;6207814;28;20043;-79
2021/04/19 07:58:48;;;;;;;12.13;6.18;;;13.30;52.00;;;;;;6202551;28;20072;-78
2021/04/19 08:02:12;;;;;;;13.95;6.35;;;13.40;51.30;;;;;;6205366;28;20448;-79
2021/04/19 08:05:13;;;;;;;12.57;5.75;;;13.60;51.00;;;;;;6194396;28;20034;-78
2021/04/19 08:08:19;;;;;;;12.07;5.93;;;13.80;50.20;;;;;;6213080;28;20100;-79
2021/04/19 08:11:20;;;;;;;12.13;5.93;;;13.90;50.00;;;;;;6215260;28;20030;-78
2021/04/19 08:14:21;;;;;;;11.65;6.07;;;14.10;49.60;;;;;;6208358;28;20045;-78
2021/04/19 08:17:27;;;;;;;11.38;5.55;;;14.20;49.20;;;;;;6223772;28;20042;-79
2021/04/19 08:20:28;;;;;;;15.82;6.40;;;14.40;48.80;;;;;;6227142;28;20033;-79
2021/04/19 08:23:45;;;;;;;12.50;5.20;;;14.50;48.20;;;;;;6212836;28;20464;-78
2021/04/19 08:26:54;;;;;;;18.20;7.50;;;14.60;47.70;;;;;;6194456;28;20050;-79
2021/04/19 08:29:55;;;;;;;12.85;6.03;;;14.80;47.50;;;;;;6223277;28;20057;-79
2021/04/19 08:32:57;;;;;;;14.15;6.15;;;14.90;47.00;;;;;;6213369;28;20095;-78
2021/04/19 08:35:59;;;;;;;11.18;5.95;;;15.00;46.80;;;;;;6206787;28;20157;-79
2021/04/19 08:38:59;;;;;;;9.80;6.32;;;15.10;46.50;;;;;;6226808;28;20057;-79
2021/04/19 08:42:02;;;;;;;10.30;5.70;;;15.10;45.90;;;;;;6213115;28;20032;-79
2021/04/19 08:45:04;;;;;;;11.13;5.82;;;15.10;45.80;;;;;;6229082;28;20105;-78
2021/04/19 08:48:09;;;;;;;15.50;5.80;;;15.20;45.70;;;;;;6211426;28;20026;-78
2021/04/19 08:51:10;;;;;;;10.30;5.70;;;15.20;45.60;;;;;;6212356;28;20025;-79
2021/04/19 08:54:10;;;;;;;15.32;8.23;;;15.20;45.60;;;;;;6196103;28;20056;-79
2021/04/19 08:57:12;;;;;;;11.50;6.18;;;15.30;45.60;;;;;;6204147;28;20117;-79
2021/04/19 09:00:17;;;;;;;12.35;6.38;;;15.40;45.10;;;;;;6203470;28;20054;-79
2021/04/19 09:03:20;;;;;;;9.45;5.00;;;15.40;44.90;;;;;;6187770;28;20026;-78
2021/04/19 09:06:23;;;;;;;8.38;5.05;;;15.50;44.70;;;;;;6203254;28;20104;-78
2021/04/19 09:09:43;;;;;;;10.77;5.70;;;15.50;44.10;;;;;;6227302;28;20479;-77
2021/04/19 09:12:45;;;;;;;13.10;6.70;;;15.50;44.30;;;;;;6205031;28;20461;-77
2021/04/19 09:15:47;;;;;;;20.38;8.30;;;15.70;44.30;;;;;;6216031;28;20041;-79
2021/04/19 09:18:59;;;;;;;15.00;6.13;;;15.70;43.70;;;;;;6228554;28;20025;-77
2021/04/19 09:22:11;;;;;;;11.93;6.13;;;15.80;43.50;;;;;;6228091;28;20081;-79
2021/04/19 09:25:14;;;;;;;10.60;5.93;;;16.00;43.10;;;;;;6228095;28;20022;-78
2021/04/19 09:28:40;;;;;;;8.10;5.07;;;16.00;42.90;;;;;;6226817;28;20026;-78
2021/04/19 09:32:02;;;;;;;11.55;6.85;;;16.20;43.10;;;;;;6201670;28;20038;-79
2021/04/19 09:35:04;;;;;;;10.05;5.05;;;16.10;42.90;;;;;;6198834;28;20033;-79
2021/04/19 09:38:06;;;;;;;9.68;5.30;;;16.30;42.70;;;;;;6199907;28;20040;-79
2021/04/19 09:41:09;;;;;;;11.82;5.85;;;16.40;41.70;;;;;;6210385;28;20341;-79
2021/04/19 09:44:27;;;;;;;11.02;5.60;;;16.30;41.30;;;;;;6218877;28;20109;-79
2021/04/19 09:47:48;;;;;;;8.70;5.18;;;16.40;41.40;;;;;;6203221;28;20088;-79
2021/04/19 09:50:49;;;;;;;8.85;5.18;;;16.40;40.70;;;;;;6224134;28;20030;-80
2021/04/19 09:53:59;;;;;;;9.38;5.18;;;16.40;40.10;;;;;;6225006;28;20030;-78
2021/04/19 09:57:00;;;;;;;12.15;4.97;;;16.40;40.40;;;;;;6202801;28;20065;-78
2021/04/19 10:00:48;;;;;;;11.73;6.60;;;16.40;39.10;;;;;;6186526;28;20030;-78
2021/04/19 10:03:54;;;;;;;17.70;8.35;;;16.40;39.60;;;;;;6209241;28;20091;-79
2021/04/19 10:07:01;;;;;;;13.05;6.15;;;16.60;39.80;;;;;;6193317;28;20030;-79
2021/04/19 10:10:04;;;;;;;10.25;6.03;;;16.70;39.50;;;;;;6210244;28;20033;-78
2021/04/19 10:13:05;;;;;;;9.15;5.40;;;16.80;39.40;;;;;;6210160;28;20026;-79
2021/04/19 10:16:13;;;;;;;7.70;4.80;;;16.80;39.10;;;;;;6170122;28;20113;-78
2021/04/19 10:19:23;;;;;;;10.93;5.68;;;16.90;38.90;;;;;;6188627;28;20108;-80
2021/04/19 10:26:48;;;;;;;15.02;4.78;;;16.80;38.60;;;;;;6226072;28;20029;-79
2021/04/19 10:29:55;;;;;;;9.32;4.95;;;16.90;39.40;;;;;;6201557;28;20038;-79
2021/04/19 10:32:57;;;;;;;13.32;5.88;;;17.00;39.00;;;;;;6187331;28;20403;-79
2021/04/19 10:35:58;;;;;;;15.63;5.43;;;17.10;38.90;;;;;;6185607;28;20037;-79
2021/04/19 10:39:09;;;;;;;11.15;5.35;;;17.20;38.60;;;;;;6202293;28;20428;-78
2021/04/19 10:42:11;;;;;;;10.57;5.30;;;17.30;38.60;;;;;;6201701;28;20054;-79
2021/04/19 10:45:12;;;;;;;8.57;5.20;;;17.30;38.20;;;;;;6202517;28;20095;-80
2021/04/19 10:48:19;;;;;;;7.45;4.25;;;17.50;37.70;;;;;;6211475;28;20058;-80
2021/04/19 10:51:23;;;;;;;7.32;4.40;;;17.90;37.00;;;;;;6226495;28;20171;-79
2021/04/19 10:54:44;;;;;;;8.75;4.93;;;18.40;36.10;;;;;;6218287;28;20030;-78
2021/04/19 10:57:45;;;;;;;8.30;5.20;;;19.10;35.30;;;;;;6224622;28;20040;-79
2021/04/19 11:00:46;;;;;;;9.32;5.25;;;19.70;34.20;;;;;;6220866;28;20354;-78
2021/04/19 11:03:47;;;;;;;8.90;5.20;;;20.10;33.40;;;;;;6210189;28;20037;-79
2021/04/19 11:06:48;;;;;;;7.97;5.00;;;20.60;33.00;;;;;;6202711;28;20038;-79
2021/04/19 11:10:09;;;;;;;8.65;4.85;;;21.00;32.80;;;;;;6221415;28;20155;-79
2021/04/19 11:13:10;;;;;;;14.60;5.35;;;21.40;31.80;;;;;;6166358;28;20039;-80
2021/04/19 11:16:18;;;;;;;8.27;4.90;;;21.80;31.30;;;;;;6198943;28;20521;-79
2021/04/19 11:19:40;;;;;;;10.15;4.88;;;22.00;30.50;;;;;;6182182;28;20034;-79
2021/04/19 11:22:41;;;;;;;7.28;5.03;;;22.30;30.30;;;;;;6198778;28;20038;-79
2021/04/19 11:25:47;;;;;;;8.13;5.05;;;22.40;29.90;;;;;;6170096;28;20031;-78
2021/04/19 11:28:48;;;;;;;8.07;4.90;;;22.60;29.70;;;;;;6178633;28;20077;-79
2021/04/19 11:31:50;;;;;;;9.63;4.75;;;22.70;29.60;;;;;;6165915;28;20049;-79
2021/04/19 11:34:53;;;;;;;10.05;4.97;;;22.80;29.60;;;;;;6166446;28;20572;-79
2021/04/19 11:38:03;;;;;;;8.48;4.70;;;23.00;29.30;;;;;;6181823;28;20049;-78
2021/04/19 11:41:05;;;;;;;11.38;4.70;;;23.10;28.80;;;;;;6176246;28;20030;-78
2021/04/19 11:44:06;;;;;;;9.80;4.90;;;23.10;28.70;;;;;;6177768;28;20157;-79
2021/04/19 11:47:07;;;;;;;15.73;5.78;;;23.10;28.30;;;;;;6169648;28;20035;-79
2021/04/19 11:50:09;;;;;;;10.30;5.25;;;23.10;28.20;;;;;;6168796;28;20490;-79
2021/04/19 11:53:18;;;;;;;8.05;3.88;;;23.10;28.30;;;;;;6221894;28;20448;-78
2021/04/19 11:56:21;;;;;;;8.18;3.83;;;23.30;28.10;;;;;;6227061;28;20105;-78
2021/04/19 11:59:21;;;;;;;9.43;3.58;;;23.50;27.60;;;;;;6199191;28;20205;-78
2021/04/19 12:02:22;;;;;;;6.70;3.92;;;23.80;27.30;;;;;;6209800;28;20030;-81
2021/04/19 12:05:23;;;;;;;7.95;4.78;;;24.20;26.50;;;;;;6189036;28;20487;-78
2021/04/19 12:08:24;;;;;;;8.45;4.68;;;24.50;26.00;;;;;;6217125;28;20026;-79
2021/04/19 12:11:25;;;;;;;9.02;3.83;;;24.30;25.80;;;;;;6217896;28;20117;-78
2021/04/19 12:14:27;;;;;;;5.32;3.25;;;24.00;26.20;;;;;;6189474;28;20146;-79
2021/04/19 12:17:27;;;;;;;8.27;4.25;;;23.60;26.60;;;;;;6219572;28;20033;-79
2021/04/19 12:20:28;;;;;;;7.57;4.13;;;23.20;26.90;;;;;;6212606;28;20494;-78
2021/04/19 12:23:30;;;;;;;6.03;3.47;;;22.70;27.50;;;;;;6228279;28;20361;-79
2021/04/19 12:26:31;;;;;;;7.43;3.58;;;22.30;28.00;;;;;;6228774;28;20022;-79
2021/04/19 12:29:32;;;;;;;7.07;3.55;;;22.00;28.50;;;;;;6229361;28;20464;-78
2021/04/19 12:32:33;;;;;;;5.45;3.80;;;21.70;28.70;;;;;;6192068;28;20080;-79
2021/04/19 12:35:34;;;;;;;5.13;3.28;;;21.60;29.00;;;;;;6187186;28;20057;-79
2021/04/19 12:38:35;;;;;;;6.88;3.95;;;21.50;28.90;;;;;;6183441;28;20038;-79
2021/04/19 12:41:36;;;;;;;8.25;4.20;;;21.50;28.90;;;;;;6207980;28;20045;-80
2021/04/19 12:44:37;;;;;;;10.85;4.35;;;22.30;28.20;;;;;;6189880;28;20026;-79
2021/04/19 12:47:39;;;;;;;6.88;3.88;;;23.50;26.90;;;;;;6174116;28;20041;-79
2021/04/19 12:50:41;;;;;;;7.70;3.88;;;24.80;25.70;;;;;;6199595;28;20026;-79
2021/04/19 12:53:42;;;;;;;6.13;3.65;;;26.00;24.50;;;;;;6206501;28;20087;-80
2021/04/19 12:56:44;;;;;;;8.23;3.25;;;27.20;23.60;;;;;;6195753;28;20026;-79
2021/04/19 12:59:45;;;;;;;8.05;3.58;;;28.30;22.30;;;;;;6211220;28;20044;-79
2021/04/19 13:02:46;;;;;;;6.25;3.47;;;29.40;21.80;;;;;;6188224;28;20073;-79
2021/04/19 13:05:52;;;;;;;6.97;3.80;;;30.10;20.80;;;;;;6194343;28;20163;-79
2021/04/19 13:08:55;;;;;;;5.70;3.60;;;29.60;20.80;;;;;;6198633;28;20022;-79
2021/04/19 13:11:56;;;;;;;4.47;3.10;;;28.80;21.00;;;;;;6184618;28;20038;-79
2021/04/19 13:14:57;;;;;;;4.55;3.38;;;28.20;21.20;;;;;;6171723;28;20093;-80
2021/04/19 13:17:58;;;;;;;4.45;3.20;;;27.30;21.70;;;;;;6171260;28;20039;-79
2021/04/19 13:21:00;;;;;;;4.65;3.00;;;26.20;22.50;;;;;;6187154;28;20031;-79
2021/04/19 13:24:03;;;;;;;7.38;3.60;;;25.30;23.30;;;;;;6186776;28;20462;-79
2021/04/19 13:27:04;;;;;;;6.20;3.30;;;24.50;24.00;;;;;;6187280;28;20038;-79
2021/04/19 13:30:06;;;;;;;5.65;3.75;;;23.90;24.80;;;;;;6196068;28;20141;-80
2021/04/19 13:33:08;;;;;;;6.47;3.42;;;23.70;25.10;;;;;;6207566;28;20130;-79
2021/04/19 13:36:09;;;;;;;6.05;3.25;;;23.70;25.20;;;;;;6189673;28;20069;-79
2021/04/19 13:39:10;;;;;;;5.57;3.45;;;24.20;24.80;;;;;;6208201;28;20105;-79
2021/04/19 13:42:11;;;;;;;5.90;3.40;;;25.50;23.80;;;;;;6203822;28;20022;-80
2021/04/19 13:45:15;;;;;;;4.22;3.20;;;27.10;22.70;;;;;;6203583;28;20461;-79
2021/04/19 13:48:15;;;;;;;5.32;2.97;;;28.70;21.40;;;;;;6202996;28;20022;-78
2021/04/19 13:51:17;;;;;;;4.97;3.03;;;29.80;20.20;;;;;;6202503;28;20038;-79
2021/04/19 13:54:18;;;;;;;5.93;2.92;;;30.50;19.50;;;;;;6206407;28;20033;-80
2021/04/19 13:57:19;;;;;;;5.13;3.20;;;31.10;18.70;;;;;;6187349;28;20026;-79
2021/04/19 14:00:21;;;;;;;3.63;2.50;;;31.50;18.20;;;;;;6186454;28;20037;-79
2021/04/19 14:03:22;;;;;;;5.32;2.55;;;31.70;18.10;;;;;;6203499;28;20325;-79
2021/04/19 14:06:23;;;;;;;4.43;2.20;;;32.20;17.90;;;;;;6202623;28;20192;-79
2021/04/19 14:09:24;;;;;;;4.45;2.97;;;32.80;17.50;;;;;;6203268;28;20034;-78
2021/04/19 14:12:27;;;;;;;8.88;3.17;;;33.40;17.10;;;;;;6202421;28;20121;-79
2021/04/19 14:15:31;;;;;;;5.95;2.53;;;32.90;16.80;;;;;;6202296;28;20027;-80
2021/04/19 14:18:37;;;;;;;3.38;2.30;;;31.70;17.70;;;;;;6185770;28;20372;-79
2021/04/19 14:21:39;;;;;;;3.45;2.38;;;30.30;18.50;;;;;;6201741;28;20121;-79
2021/04/19 14:24:40;;;;;;;4.85;2.78;;;29.10;19.20;;;;;;6207823;28;20026;-79
2021/04/19 14:27:41;;;;;;;3.60;2.33;;;27.90;19.80;;;;;;6225160;28;20049;-80
2021/04/19 14:30:43;;;;;;;3.92;2.55;;;26.90;20.50;;;;;;6206180;28;20046;-79
2021/04/19 14:33:44;;;;;;;3.75;2.45;;;26.20;21.00;;;;;;6224615;28;20034;-79
2021/04/19 14:36:46;;;;;;;4.53;2.63;;;25.60;21.40;;;;;;6207046;28;20053;-80
2021/04/19 14:39:48;;;;;;;2.97;2.10;;;25.10;21.70;;;;;;6189779;28;20441;-79
2021/04/19 14:42:49;;;;;;;4.43;2.47;;;24.70;21.90;;;;;;6207809;28;20034;-80
2021/04/19 14:45:50;;;;;;;2.70;2.00;;;24.40;22.20;;;;;;6185171;28;20030;-78
2021/04/19 14:48:51;;;;;;;3.90;2.03;;;24.10;22.40;;;;;;6201332;28;20050;-78
2021/04/19 14:51:55;;;;;;;3.63;2.10;;;23.80;22.70;;;;;;6211991;28;20029;-78
2021/04/19 14:54:57;;;;;;;2.90;1.75;;;23.60;22.90;;;;;;6208431;28;20381;-79
2021/04/19 14:57:58;;;;;;;3.05;1.73;;;23.50;23.10;;;;;;6225040;28;20044;-79
2021/04/19 15:01:00;;;;;;;5.40;1.92;;;23.40;23.40;;;;;;6224514;28;20386;-80
2021/04/19 15:04:01;;;;;;;6.32;2.42;;;23.10;23.60;;;;;;6208301;28;20029;-79
2021/04/19 15:07:02;;;;;;;3.10;2.10;;;23.00;23.80;;;;;;6224562;28;20318;-79
2021/04/19 15:10:04;;;;;;;2.72;1.73;;;23.00;23.90;;;;;;6225338;28;20508;-78
2021/04/19 15:13:05;;;;;;;2.88;1.50;;;22.90;23.90;;;;;;6224092;28;20868;-79
2021/04/19 15:16:05;;;;;;;3.58;1.63;;;22.90;23.90;;;;;;6211645;28;20105;-79
2021/04/19 15:19:06;;;;;;;1.75;1.52;;;22.80;23.80;;;;;;6200897;28;20030;-79
2021/04/19 15:22:07;;;;;;;3.53;1.70;;;22.70;23.70;;;;;;6202847;28;20129;-78
2021/04/19 15:25:08;;;;;;;3.30;1.95;;;22.70;23.60;;;;;;6212554;28;20034;-79
2021/04/19 15:28:09;;;;;;;2.90;1.80;;;22.60;23.70;;;;;;6207390;28;20053;-79
2021/04/19 15:31:11;;;;;;;3.63;1.90;;;22.50;23.70;;;;;;6207014;28;20040;-78
2021/04/19 15:34:13;;;;;;;2.03;1.30;;;22.40;23.70;;;;;;6200050;28;20109;-79
2021/04/19 15:37:18;;;;;;;2.47;1.60;;;22.20;23.60;;;;;;6170739;28;20030;-79
2021/04/19 15:40:20;;;;;;;4.63;1.90;;;21.90;23.90;;;;;;6207491;28;20030;-78
2021/04/19 15:43:23;;;;;;;3.10;1.85;;;21.70;24.10;;;;;;6207570;28;20091;-80
2021/04/19 15:46:25;;;;;;;2.85;1.52;;;21.50;24.40;;;;;;6207580;28;20144;-79
2021/04/19 15:49:26;;;;;;;3.00;1.60;;;21.30;24.80;;;;;;6207641;28;20041;-78
2021/04/19 15:52:27;;;;;;;2.25;1.70;;;21.20;25.00;;;;;;6207496;28;20040;-79
2021/04/19 15:55:28;;;;;;;2.92;1.60;;;21.10;25.00;;;;;;6207023;28;20511;-78
2021/04/19 15:58:29;;;;;;;2.50;1.70;;;21.00;25.00;;;;;;6207690;28;20057;-78
2021/04/19 16:01:30;;;;;;;2.17;1.50;;;21.00;25.10;;;;;;6207412;28;20044;-79